createdAt,value
2022-08-22T00:01:52.082Z,101434.31
2022-08-22T00:02:45.630Z,101456.63
2022-08-22T00:02:49.934Z,101447.59
2022-08-22T00:02:57.073Z,101457.41
2022-08-22T00:03:03.718Z,101457.69
2022-08-22T00:04:50.306Z,101428.41
2022-08-22T00:07:59.217Z,101432.25
2022-08-22T00:11:12.673Z,101433.41
2022-08-22T00:14:07.404Z,101429.22
2022-08-22T00:17:02.724Z,101426.78
2022-08-22T00:19:47.887Z,101426.03
2022-08-22T00:23:11.931Z,101422.91
2022-08-22T00:26:15.603Z,101435.44
2022-08-22T00:29:19.692Z,101425.06
2022-08-22T00:32:08.264Z,101423.50
2022-08-22T00:35:13.385Z,101425.50
2022-08-22T00:38:22.032Z,101431.03
2022-08-22T00:41:38.640Z,101433.91
2022-08-22T00:44:43.058Z,101426.91
2022-08-22T00:47:38.804Z,101426.09
2022-08-22T00:50:49.971Z,101426.09
2022-08-22T00:54:00.366Z,101431.38
2022-08-22T00:57:08.993Z,101433.91
2022-08-22T01:00:13.401Z,101437.41
2022-08-22T01:03:09.706Z,101433.91
2022-08-22T01:06:20.033Z,101437.41
2022-08-22T01:09:43.082Z,101433.16
2022-08-22T01:13:16.804Z,101442.09
2022-08-22T01:15:48.005Z,101431.72
2022-08-22T01:18:44.458Z,101435.34
2022-08-22T01:22:06.091Z,101438.09
2022-08-22T01:25:25.820Z,101438.94
2022-08-22T01:28:40.609Z,101438.09
2022-08-22T01:31:46.089Z,101433.63
2022-08-22T01:34:54.171Z,101438.09
2022-08-22T01:38:00.949Z,101434.72
2022-08-22T01:41:06.331Z,101434.72
2022-08-22T01:44:03.373Z,101433.97
2022-08-22T01:46:48.358Z,101437.50
2022-08-22T01:49:28.184Z,101435.91
2022-08-22T01:52:34.750Z,101428.91
2022-08-22T01:55:33.631Z,101429.00
2022-08-22T01:58:19.850Z,101422.03
2022-08-22T02:01:18.048Z,101429.13
2022-08-22T02:03:51.375Z,101423.94
2022-08-22T02:07:11.043Z,101426.59
2022-08-22T02:10:27.512Z,101420.47
2022-08-22T02:13:10.954Z,101429.25
2022-08-22T02:16:11.110Z,101420.56
2022-08-22T02:19:14.952Z,101421.41
2022-08-22T02:22:44.570Z,101418.88
2022-08-22T02:25:28.379Z,101425.38
2022-08-22T02:28:13.858Z,101419.09
2022-08-22T02:31:16.638Z,101416.56
2022-08-22T02:34:01.183Z,101414.13
2022-08-22T02:36:46.677Z,101407.16
2022-08-22T02:39:46.227Z,101406.31
2022-08-22T02:42:55.202Z,101407.41
2022-08-22T02:45:44.867Z,101405.69
2022-08-22T02:48:38.897Z,101403.88
2022-08-22T02:52:02.160Z,101403.03
2022-08-22T02:55:13.913Z,101404.75
2022-08-22T02:58:04.154Z,101404.75
2022-08-22T03:01:22.232Z,101405.47
2022-08-22T03:03:52.556Z,101404.63
2022-08-22T03:06:59.361Z,101396.69
2022-08-22T03:09:40.159Z,101397.53
2022-08-22T03:13:10.669Z,101393.28
2022-08-22T03:16:19.280Z,101390.88
2022-08-22T03:19:04.466Z,101394.59
2022-08-22T03:21:47.719Z,101391.31
2022-08-22T03:24:31.737Z,101392.28
2022-08-22T03:27:32.614Z,101400.13
2022-08-22T03:30:38.042Z,101393.84
2022-08-22T03:33:23.805Z,101392.91
2022-08-22T03:36:26.918Z,101400.00
2022-08-22T03:39:35.425Z,101389.66
2022-08-22T03:43:03.437Z,101383.47
2022-08-22T03:46:42.115Z,101381.94
2022-08-22T03:49:42.697Z,101375.03
2022-08-22T03:53:05.865Z,101373.44
2022-08-22T03:57:01.178Z,101375.72
2022-08-22T04:00:01.883Z,101369.09
2022-08-22T04:03:19.180Z,101379.25
2022-08-22T04:06:33.367Z,101369.97
2022-08-22T04:09:57.775Z,101379.31
2022-08-22T04:13:03.132Z,101374.34
2022-08-22T04:15:58.062Z,101372.22
2022-08-22T04:18:49.930Z,101379.56
2022-08-22T04:21:52.250Z,101386.94
2022-08-22T04:24:57.698Z,101379.44
2022-08-22T04:27:44.183Z,101377.78
2022-08-22T04:30:31.438Z,101391.31
2022-08-22T04:33:17.802Z,101390.78
2022-08-22T04:36:03.346Z,101392.09
2022-08-22T04:39:01.136Z,101391.44
2022-08-22T04:41:43.251Z,101396.09
2022-08-22T04:44:28.019Z,101394.50
2022-08-22T04:47:38.225Z,101391.25
2022-08-22T04:50:41.199Z,101385.22
2022-08-22T04:53:31.584Z,101378.13
2022-08-22T04:56:35.926Z,101386.06
2022-08-22T04:59:17.914Z,101395.16
2022-08-22T05:02:06.399Z,101394.31
2022-08-22T05:04:46.441Z,101400.44
2022-08-22T05:07:33.962Z,101400.44
2022-08-22T05:10:34.197Z,101407.72
2022-08-22T05:13:46.711Z,101411.75
2022-08-22T05:16:25.866Z,101413.13
2022-08-22T05:19:12.084Z,101413.66
2022-08-22T05:21:46.283Z,101408.97
2022-08-22T05:24:28.743Z,101409.75
2022-08-22T05:27:08.258Z,101415.53
2022-08-22T05:29:44.770Z,101409.19
2022-08-22T05:33:00.719Z,101408.13
2022-08-22T05:35:50.157Z,101413.09
2022-08-22T05:38:29.448Z,101410.22
2022-08-22T05:41:10.349Z,101417.09
2022-08-22T05:43:44.466Z,101428.31
2022-08-22T05:46:51.571Z,101431.63
2022-08-22T05:49:40.459Z,101426.84
2022-08-22T05:52:55.960Z,101428.22
2022-08-22T05:55:56.988Z,101426.81
2022-08-22T05:58:38.984Z,101420.13
2022-08-22T06:01:29.912Z,101424.00
2022-08-22T06:04:04.781Z,101418.25
2022-08-22T06:06:46.805Z,101416.84
2022-08-22T06:09:47.704Z,101427.84
2022-08-22T06:12:36.516Z,101422.09
2022-08-22T06:15:26.165Z,101425.03
2022-08-22T06:18:10.407Z,101423.72
2022-08-22T06:20:56.082Z,101430.38
2022-08-22T06:23:56.786Z,101431.97
2022-08-22T06:26:31.719Z,101435.09
2022-08-22T06:29:02.858Z,101436.56
2022-08-22T06:31:46.064Z,101429.22
2022-08-22T06:34:32.426Z,101439.41
2022-08-22T06:37:16.826Z,101445.94
2022-08-22T06:39:51.123Z,101448.97
2022-08-22T06:42:30.523Z,101452.09
2022-08-22T06:45:37.901Z,101451.75
2022-08-22T06:48:08.375Z,101455.88
2022-08-22T06:50:43.723Z,101457.34
2022-08-22T06:53:34.387Z,101453.69
2022-08-22T06:56:06.039Z,101453.47
2022-08-22T06:58:46.950Z,101451.31
2022-08-22T07:01:27.597Z,101455.28
2022-08-22T07:04:08.659Z,101456.75
2022-08-22T07:06:44.220Z,101449.28
2022-08-22T07:09:32.031Z,101455.81
2022-08-22T07:12:16.543Z,101459.91
2022-08-22T07:14:51.415Z,101463.06
2022-08-22T07:17:29.901Z,101460.75
2022-08-22T07:20:29.857Z,101458.44
2022-08-22T07:23:40.550Z,101467.50
2022-08-22T07:26:52.832Z,101453.53
2022-08-22T07:29:49.243Z,101460.06
2022-08-22T07:32:35.248Z,101464.25
2022-08-22T07:35:22.670Z,101454.38
2022-08-22T07:38:13.921Z,101467.41
2022-08-22T07:41:22.604Z,101459.66
2022-08-22T07:44:16.202Z,101457.47
2022-08-22T07:47:18.077Z,101444.56
2022-08-22T07:50:07.063Z,101443.06
2022-08-22T07:52:46.829Z,101441.47
2022-08-22T07:55:26.942Z,101447.00
2022-08-22T07:58:04.118Z,101444.72
2022-08-22T08:00:32.959Z,101444.66
2022-08-22T08:03:09.304Z,101443.66
2022-08-22T08:05:42.191Z,101439.38
2022-08-22T08:08:26.605Z,101444.78
2022-08-22T08:10:59.224Z,101440.59
2022-08-22T08:13:41.242Z,101442.59
2022-08-22T08:16:23.449Z,101432.56
2022-08-22T08:18:57.960Z,101432.03
2022-08-22T08:21:29.381Z,101427.88
2022-08-22T08:24:00.846Z,101429.16
2022-08-22T08:27:00.358Z,101424.41
2022-08-22T08:29:28.939Z,101417.97
2022-08-22T08:31:59.407Z,101422.38
2022-08-22T08:34:32.447Z,101422.50
2022-08-22T08:37:24.601Z,101420.47
2022-08-22T08:39:59.423Z,101413.75
2022-08-22T08:43:10.874Z,101407.91
2022-08-22T08:46:07.037Z,101416.66
2022-08-22T08:49:43.432Z,101415.16
2022-08-22T08:53:13.907Z,101414.00
2022-08-22T08:56:19.898Z,101409.78
2022-08-22T08:59:52.263Z,101404.09
2022-08-22T09:03:06.925Z,101404.72
2022-08-22T09:06:33.626Z,101411.25
2022-08-22T09:09:52.285Z,101407.09
2022-08-22T09:12:33.788Z,101400.28
2022-08-22T09:15:55.049Z,101401.47
2022-08-22T09:18:53.036Z,101391.28
2022-08-22T09:22:20.729Z,101389.97
2022-08-22T09:25:24.599Z,101389.16
2022-08-22T09:28:16.839Z,101391.78
2022-08-22T09:31:32.897Z,101390.19
2022-08-22T09:34:35.709Z,101387.03
2022-08-22T09:37:37.830Z,101393.97
2022-08-22T09:43:05.542Z,101386.63
2022-08-22T09:45:45.340Z,101397.81
2022-08-22T09:48:38.837Z,101390.94
2022-08-22T09:52:03.675Z,101394.75
2022-08-22T09:54:56.506Z,101393.56
2022-08-22T09:58:41.904Z,101396.22
2022-08-22T10:01:26.002Z,101393.00
2022-08-22T10:04:40.617Z,101382.44
2022-08-22T10:07:38.666Z,101387.16
2022-08-22T10:10:42.821Z,101374.63
2022-08-22T10:14:01.746Z,101379.66
2022-08-22T10:17:32.601Z,101368.44
2022-08-22T10:20:32.132Z,101370.28
2022-08-22T10:23:57.534Z,101371.19
2022-08-22T10:26:52.808Z,101367.81
2022-08-22T10:29:54.827Z,101369.66
2022-08-22T10:32:46.078Z,101361.53
2022-08-22T10:36:00.577Z,101363.00
2022-08-22T10:38:54.667Z,101358.22
2022-08-22T10:42:28.126Z,101359.28
2022-08-22T10:45:36.895Z,101357.88
2022-08-22T10:48:27.998Z,101355.53
2022-08-22T10:51:45.193Z,101354.94
2022-08-22T10:54:57.965Z,101355.22
2022-08-22T10:57:39.261Z,101357.16
2022-08-22T11:00:27.043Z,101350.34
2022-08-22T11:03:36.048Z,101349.00
2022-08-22T11:06:41.745Z,101347.53
2022-08-22T11:09:42.210Z,101339.56
2022-08-22T11:12:56.628Z,101337.38
2022-08-22T11:15:53.595Z,101342.91
2022-08-22T11:19:15.067Z,101345.03
2022-08-22T11:22:30.513Z,101345.28
2022-08-22T11:25:44.404Z,101344.22
2022-08-22T11:29:12.322Z,101337.03
2022-08-22T11:31:54.415Z,101332.00
2022-08-22T11:35:08.990Z,101335.91
2022-08-22T11:37:56.424Z,101334.88
2022-08-22T11:40:53.561Z,101338.38
2022-08-22T11:44:27.615Z,101334.03
2022-08-22T11:46:59.651Z,101331.47
2022-08-22T11:49:50.207Z,101327.19
2022-08-22T11:52:36.842Z,101326.25
2022-08-22T11:55:35.068Z,101317.78
2022-08-22T11:58:42.563Z,101317.13
2022-08-22T12:01:23.843Z,101313.97
2022-08-22T12:04:33.777Z,101314.38
2022-08-22T12:07:25.480Z,101316.91
2022-08-22T12:10:24.918Z,101321.19
2022-08-22T12:13:13.793Z,101326.69
2022-08-22T12:16:06.399Z,101325.28
2022-08-22T12:18:59.708Z,101320.34
2022-08-22T12:22:19.611Z,101319.72
2022-08-22T12:25:57.698Z,101321.78
2022-08-22T12:29:33.403Z,101319.44
2022-08-22T12:32:49.163Z,101314.78
2022-08-22T12:36:18.015Z,101311.28
2022-08-22T12:39:27.494Z,101302.84
2022-08-22T12:43:03.608Z,101301.59
2022-08-22T12:45:53.981Z,101304.75
2022-08-22T12:49:07.387Z,101297.34
2022-08-22T12:52:08.398Z,101300.03
2022-08-22T12:55:18.226Z,101302.66
2022-08-22T12:58:33.483Z,101296.50
2022-08-22T13:01:09.024Z,101292.50
2022-08-22T13:03:53.410Z,101287.28
2022-08-22T13:06:37.922Z,101283.69
2022-08-22T13:09:32.591Z,101285.75
2022-08-22T13:12:22.676Z,101282.13
2022-08-22T13:15:31.146Z,101289.44
2022-08-22T13:18:28.469Z,101285.78
2022-08-22T13:21:01.152Z,101278.25
2022-08-22T13:23:51.437Z,101270.91
2022-08-22T13:26:33.983Z,101271.19
2022-08-22T13:29:27.007Z,101266.50
2022-08-22T13:32:02.389Z,101264.13
2022-08-22T13:34:56.138Z,101261.34
2022-08-22T13:37:38.081Z,101260.16
2022-08-22T13:40:24.747Z,101260.81
2022-08-22T13:43:23.016Z,101259.19
2022-08-22T13:46:01.881Z,101259.59
2022-08-22T13:48:56.654Z,101262.34
2022-08-22T13:52:28.824Z,101258.38
2022-08-22T13:55:12.454Z,101259.47
2022-08-22T13:57:53.791Z,101253.53
2022-08-22T14:01:07.505Z,101257.44
2022-08-22T14:03:56.716Z,101246.75
2022-08-22T14:07:00.777Z,101255.75
2022-08-22T14:09:34.191Z,101247.78
2022-08-22T14:12:18.611Z,101245.91
2022-08-22T14:14:56.920Z,101254.44
2022-08-22T14:17:43.541Z,101248.03
2022-08-22T14:20:32.656Z,101248.13
2022-08-22T14:23:29.259Z,101246.72
2022-08-22T14:25:58.014Z,101243.31
2022-08-22T14:28:33.840Z,101239.63
2022-08-22T14:31:13.771Z,101241.56
2022-08-22T14:33:54.599Z,101235.28
2022-08-22T14:36:44.492Z,101230.75
2022-08-22T14:39:42.821Z,101234.53
2022-08-22T14:42:23.438Z,101233.88
2022-08-22T14:45:19.763Z,101230.06
2022-08-22T14:48:29.931Z,101230.00
2022-08-22T14:51:21.953Z,101223.38
2022-08-22T14:53:50.538Z,101229.41
2022-08-22T14:56:28.077Z,101230.34
2022-08-22T14:59:08.812Z,101225.59
2022-08-22T15:02:07.529Z,101220.75
2022-08-22T15:04:47.376Z,101220.38
2022-08-22T15:07:37.495Z,101220.28
2022-08-22T15:10:26.991Z,101214.66
2022-08-22T15:13:07.860Z,101217.25
2022-08-22T15:15:54.317Z,101215.00
2022-08-22T15:18:29.245Z,101209.59
2022-08-22T15:21:12.396Z,101216.88
2022-08-22T15:23:46.971Z,101214.66
2022-08-22T15:26:34.077Z,101204.09
2022-08-22T15:29:27.582Z,101212.59
2022-08-22T15:32:03.404Z,101212.78
2022-08-22T15:34:44.302Z,101211.16
2022-08-22T15:37:20.679Z,101208.25
2022-08-22T15:40:31.294Z,101211.91
2022-08-22T15:43:20.200Z,101204.31
2022-08-22T15:45:53.558Z,101204.75
2022-08-22T15:48:36.649Z,101206.47
2022-08-22T15:51:13.355Z,101209.94
2022-08-22T15:54:24.471Z,101196.75
2022-08-22T15:56:52.807Z,101199.59
2022-08-22T15:59:48.130Z,101201.56
2022-08-22T16:03:24.478Z,101193.34
2022-08-22T16:05:59.441Z,101194.66
2022-08-22T16:08:50.948Z,101186.50
2022-08-22T16:11:40.586Z,101185.03
2022-08-22T16:14:49.828Z,101179.81
2022-08-22T16:17:28.737Z,101178.09
2022-08-22T16:20:08.135Z,101174.88
2022-08-22T16:22:58.823Z,101169.91
2022-08-22T16:25:44.550Z,101169.31
2022-08-22T16:28:57.754Z,101173.22
2022-08-22T16:32:00.966Z,101170.16
2022-08-22T16:34:45.792Z,101158.13
2022-08-22T16:37:17.948Z,101164.44
2022-08-22T16:39:50.334Z,101164.72
2022-08-22T16:42:23.349Z,101159.44
2022-08-22T16:45:32.971Z,101164.88
2022-08-22T16:48:39.542Z,101156.59
2022-08-22T16:51:18.687Z,101161.44
2022-08-22T16:54:11.976Z,101150.47
2022-08-22T16:57:10.749Z,101155.75
2022-08-22T17:00:57.567Z,101140.22
2022-08-22T17:03:58.783Z,101142.50
2022-08-22T17:06:52.659Z,101141.16
2022-08-22T17:10:19.672Z,101134.19
2022-08-22T17:13:37.422Z,101136.78
2022-08-22T17:16:49.759Z,101125.06
2022-08-22T17:19:57.366Z,101132.38
2022-08-22T17:22:52.497Z,101127.03
2022-08-22T17:25:34.722Z,101132.94
2022-08-22T17:29:06.412Z,101134.69
2022-08-22T17:32:33.585Z,101132.72
2022-08-22T17:36:26.518Z,101138.06
2022-08-22T17:39:12.619Z,101132.75
2022-08-22T17:42:08.460Z,101135.97
2022-08-22T17:45:28.248Z,101134.97
2022-08-22T17:48:16.364Z,101147.94
2022-08-22T17:51:21.883Z,101143.09
2022-08-22T17:54:04.579Z,101155.34
2022-08-22T17:57:14.623Z,101153.19
2022-08-22T18:00:12.958Z,101166.09
2022-08-22T18:03:15.137Z,101160.25
2022-08-22T18:06:44.447Z,101162.59
2022-08-22T18:09:45.908Z,101170.84
2022-08-22T18:13:01.325Z,101165.50
2022-08-22T18:15:51.180Z,101169.03
2022-08-22T18:18:54.423Z,101167.19
2022-08-22T18:21:57.306Z,101174.06
2022-08-22T18:25:26.511Z,101170.75
2022-08-22T18:29:07.656Z,101182.47
2022-08-22T18:32:12.795Z,101178.94
2022-08-22T18:34:47.537Z,101183.28
2022-08-22T18:37:35.475Z,101188.47
2022-08-22T18:40:38.024Z,101184.09
2022-08-22T18:43:46.301Z,101189.59
2022-08-22T18:46:27.587Z,101192.09
2022-08-22T18:49:14.676Z,101196.44
2022-08-22T18:51:43.978Z,101197.44
2022-08-22T18:54:11.479Z,101195.41
2022-08-22T18:56:59.626Z,101193.38
2022-08-22T18:59:46.724Z,101196.53
2022-08-22T19:02:48.112Z,101201.69
2022-08-22T19:05:50.242Z,101198.50
2022-08-22T19:08:56.222Z,101199.94
2022-08-22T19:12:25.860Z,101205.94
2022-08-22T19:15:52.587Z,101211.25
2022-08-22T19:19:01.598Z,101211.72
2022-08-22T19:21:56.285Z,101211.22
2022-08-22T19:24:26.432Z,101212.53
2022-08-22T19:27:25.084Z,101211.03
2022-08-22T19:30:28.809Z,101214.19
2022-08-22T19:33:02.856Z,101213.63
2022-08-22T19:36:03.687Z,101211.28
2022-08-22T19:39:00.564Z,101215.28
2022-08-22T19:41:54.091Z,101216.94
2022-08-22T19:44:21.203Z,101212.44
2022-08-22T19:47:27.030Z,101219.59
2022-08-22T19:50:13.720Z,101217.78
2022-08-22T19:53:36.160Z,101217.09
2022-08-22T19:56:26.263Z,101212.75
2022-08-22T19:59:12.250Z,101218.28
2022-08-22T20:02:21.944Z,101204.19
2022-08-22T20:05:39.139Z,101209.69
2022-08-22T20:09:11.140Z,101207.34
2022-08-22T20:12:15.493Z,101208.66
2022-08-22T20:14:47.542Z,101205.44
2022-08-22T20:17:27.027Z,101197.59
2022-08-22T20:20:30.536Z,101203.25
2022-08-22T20:23:12.282Z,101196.72
2022-08-22T20:25:52.931Z,101209.22
2022-08-22T20:28:52.298Z,101203.31
2022-08-22T20:31:27.219Z,101208.00
2022-08-22T20:34:17.717Z,101205.63
2022-08-22T20:36:55.865Z,101204.94
2022-08-22T20:40:55.605Z,101204.41
2022-08-22T20:43:38.492Z,101206.41
2022-08-22T20:46:46.286Z,101202.19
2022-08-22T20:49:34.369Z,101202.50
2022-08-22T20:52:08.095Z,101204.34
2022-08-22T20:54:40.822Z,101197.47
2022-08-22T20:57:18.192Z,101198.63
2022-08-22T21:00:19.072Z,101197.09
2022-08-22T21:03:32.830Z,101191.22
2022-08-22T21:06:18.041Z,101191.53
2022-08-22T21:09:12.528Z,101192.69
2022-08-22T21:11:51.166Z,101191.31
2022-08-22T21:14:25.667Z,101195.13
2022-08-22T21:16:53.704Z,101197.09
2022-08-22T21:19:29.937Z,101197.41
2022-08-22T21:22:27.003Z,101190.53
2022-08-22T21:24:58.549Z,101194.38
2022-08-22T21:27:34.483Z,101194.81
2022-08-22T21:30:09.997Z,101184.59
2022-08-22T21:32:55.043Z,101185.06
2022-08-22T21:35:33.058Z,101185.66
2022-08-22T21:38:02.308Z,101185.09
2022-08-22T21:40:38.006Z,101183.88
2022-08-22T21:43:30.609Z,101178.97
2022-08-22T21:45:58.006Z,101183.09
2022-08-22T21:49:03.453Z,101193.53
2022-08-22T21:51:36.259Z,101182.63
2022-08-22T21:54:42.211Z,101183.50
2022-08-22T21:57:09.340Z,101186.78
2022-08-22T21:59:51.802Z,101187.22
2022-08-22T22:02:39.780Z,101190.63
2022-08-22T22:05:17.880Z,101187.69
2022-08-22T22:07:47.690Z,101189.13
2022-08-22T22:10:19.420Z,101191.38
2022-08-22T22:12:52.045Z,101198.16
2022-08-22T22:15:25.841Z,101190.13
2022-08-22T22:17:55.339Z,101186.22
2022-08-22T22:20:26.233Z,101186.53
2022-08-22T22:22:54.620Z,101198.59
2022-08-22T22:25:39.597Z,101193.00
2022-08-22T22:28:37.821Z,101192.56
2022-08-22T22:31:06.949Z,101203.81
2022-08-22T22:33:40.912Z,101200.59
2022-08-22T22:36:25.255Z,101193.03
2022-08-22T22:38:53.969Z,101189.66
2022-08-22T22:41:25.542Z,101201.44
2022-08-22T22:43:55.020Z,101190.09
2022-08-22T22:46:24.262Z,101184.91
2022-08-22T22:48:51.819Z,101191.34
2022-08-22T22:51:19.550Z,101189.81
2022-08-22T22:53:47.750Z,101194.84
2022-08-22T22:56:21.609Z,101189.13
2022-08-22T22:59:00.655Z,101187.84
2022-08-22T23:01:58.810Z,101190.91
2022-08-22T23:04:25.980Z,101191.31
2022-08-22T23:06:53.355Z,101191.47
2022-08-22T23:09:20.613Z,101190.75
2022-08-22T23:11:55.935Z,101192.88
2022-08-22T23:14:23.327Z,101194.13
2022-08-22T23:16:50.677Z,101192.56
2022-08-22T23:19:18.999Z,101192.84
2022-08-22T23:21:47.718Z,101187.78
2022-08-22T23:24:15.883Z,101191.59
2022-08-22T23:26:44.677Z,101186.69
2022-08-22T23:29:13.356Z,101185.81
2022-08-22T23:31:50.856Z,101187.09
2022-08-22T23:34:26.782Z,101189.03
2022-08-22T23:36:58.336Z,101188.47
2022-08-22T23:39:29.918Z,101185.13
2022-08-22T23:41:59.623Z,101188.88
2022-08-22T23:44:35.133Z,101183.00
2022-08-22T23:47:04.795Z,101185.94
2022-08-22T23:49:34.468Z,101181.03
2022-08-22T23:52:02.857Z,101178.78
2022-08-22T23:54:30.160Z,101171.22
2022-08-22T23:57:02.621Z,101173.28
2022-08-22T23:59:47.951Z,101169.91
